Brittin — NBVJ — position and weather

sailwx.info

Track history (hours):
 
Tides and Currents Weather Stations Pressure Air Temp Water Temp Dewpoint Dewpoint Depression Visibility Wind Speed Wind Dir Waves Ship Positions

Brittin

Last reported at 2018-Apr-12 10:56 UTC. Time now 2018-Apr-25 12:41 UTC.
Position N 09°20' W 079°55'.
Warning: this ship's position is 13 days out of date.

Length 289 m; draft 9.1 m.

Type: Cargo ship. MMSI: 303890000.

Date/timePositionNaut miles runAvg speedWind from/ knotsBaromVisibWave heightAir tempDewpointWater temp
2018-Apr-12 10:56N 09°20' W 079°55'2 5.0
2018-Apr-12 10:30N 09°23' W 079°55'3 6.0
2018-Apr-12 10:00N 09°26' W 079°55'4 9.2
2018-Apr-12 09:30N 09°30' W 079°54'3 6.1
2018-Apr-12 09:00N 09°33' W 079°52'1 2.3
2018-Apr-12 08:25N 09°31' W 079°52'2 4.0
2018-Apr-12 08:00N 09°31' W 079°53'4 7.4
2018-Apr-12 07:30N 09°34' W 079°52'5 7.5
2018-Apr-12 06:50N 09°39' W 079°51'3 8.9
2018-Apr-12 06:29N 09°42' W 079°50'  
2018-Apr-03 13:40N 36°59' W 076°19'2 9.9
2018-Apr-03 13:30N 36°58' W 076°21'3 5.7
2018-Apr-03 12:54N 36°58' W 076°25'  
Track history (hours):
 
Tides and Currents Weather Stations Pressure Air Temp Water Temp Dewpoint Dewpoint Depression Visibility Wind Speed Wind Dir Waves Ship Positions

Brittin

Last reported at 2018-Apr-12 10:56 UTC. Time now 2018-Apr-25 12:41 UTC.
Position N 09°20' W 079°55'.
Warning: this ship's position is 13 days out of date.

Length 289 m; draft 9.1 m.

Type: Cargo ship. MMSI: 303890000.

Date/timePositionNaut miles runAvg speedWind from/ knotsBaromVisibWave heightAir tempDewpointWater temp
2018-Apr-12 10:56N 09°20' W 079°55'2 5.0
2018-Apr-12 10:30N 09°23' W 079°55'3 6.0
2018-Apr-12 10:00N 09°26' W 079°55'4 9.2
2018-Apr-12 09:30N 09°30' W 079°54'3 6.1
2018-Apr-12 09:00N 09°33' W 079°52'1 2.3
2018-Apr-12 08:25N 09°31' W 079°52'2 4.0
2018-Apr-12 08:00N 09°31' W 079°53'4 7.4
2018-Apr-12 07:30N 09°34' W 079°52'5 7.5
2018-Apr-12 06:50N 09°39' W 079°51'3 8.9
2018-Apr-12 06:29N 09°42' W 079°50'  
2018-Apr-03 13:40N 36°59' W 076°19'2 9.9
2018-Apr-03 13:30N 36°58' W 076°21'3 5.7
2018-Apr-03 12:54N 36°58' W 076°25'  

Dump ship's entire track history